createdAt,value
2023-05-01T00:03:08.694Z,1009.518
2023-05-01T00:23:07.575Z,1009.215
2023-05-01T00:43:07.397Z,1008.97
2023-05-01T01:03:08.567Z,1008.761
2023-05-01T01:23:07.492Z,1008.486
2023-05-01T01:43:07.570Z,1008.35
2023-05-01T02:03:08.735Z,1008.089
2023-05-01T02:23:07.559Z,1007.946
2023-05-01T02:43:07.385Z,1007.666
2023-05-01T03:03:08.320Z,1007.412
2023-05-01T03:23:07.225Z,1007.2
2023-05-01T03:43:08.000Z,1007
2023-05-01T04:03:09.269Z,1006.87
2023-05-01T04:23:07.209Z,1006.803
2023-05-01T04:43:07.566Z,1006.776
2023-05-01T05:03:09.094Z,1006.638
2023-05-01T05:23:09.458Z,1006.641
2023-05-01T05:43:07.373Z,1006.557
2023-05-01T06:03:08.730Z,1006.522
2023-05-01T06:23:07.630Z,1006.401
2023-05-01T06:43:07.572Z,1006.343
2023-05-01T07:03:08.534Z,1006.343
2023-05-01T07:23:08.695Z,1006.225
2023-05-01T07:43:07.653Z,1006.127
2023-05-01T08:03:09.320Z,1005.993
2023-05-01T08:23:07.343Z,1005.971
2023-05-01T08:43:07.278Z,1005.958
2023-05-01T09:03:09.042Z,1005.807
2023-05-01T09:23:07.865Z,1005.733
2023-05-01T09:43:08.006Z,1005.505
2023-05-01T10:03:09.878Z,1005.471
2023-05-01T10:23:07.887Z,1005.42
2023-05-01T10:43:08.011Z,1005.348
2023-05-01T11:03:09.153Z,1005.047
2023-05-01T11:23:08.114Z,1004.896
2023-05-01T11:43:08.316Z,1004.839
2023-05-01T12:03:09.206Z,1004.739
2023-05-01T12:23:07.283Z,1004.61
2023-05-01T12:43:07.171Z,1004.523
2023-05-01T13:03:09.323Z,1004.397
2023-05-01T13:23:07.246Z,1004.349
2023-05-01T13:43:07.099Z,1004.171
2023-05-01T14:03:09.201Z,1004.118
2023-05-01T14:23:07.176Z,1004.17
2023-05-01T14:43:08.299Z,1003.964
2023-05-01T15:03:08.656Z,1003.983
2023-05-01T15:23:07.564Z,1003.885
2023-05-01T15:43:07.561Z,1003.919
2023-05-01T16:03:09.466Z,1003.906
2023-05-01T16:23:07.462Z,1003.916
2023-05-01T16:43:07.426Z,1004.033
2023-05-01T17:03:08.674Z,1004.24
2023-05-01T17:23:07.682Z,1004.349
2023-05-01T17:43:07.953Z,1004.55
2023-05-01T18:03:09.450Z,1005.233
2023-05-01T18:23:07.304Z,1005.51
2023-05-01T18:43:07.287Z,1005.88
2023-05-01T19:03:08.632Z,1006.042
2023-05-01T19:23:07.628Z,1006.107
2023-05-01T19:43:07.791Z,1006.261
2023-05-01T20:03:09.059Z,1006.441
2023-05-01T20:23:08.143Z,1006.491
2023-05-01T20:43:07.173Z,1006.443
2023-05-01T21:03:08.711Z,1006.79
2023-05-01T21:23:07.676Z,1006.884
2023-05-01T21:43:07.808Z,1007.074
2023-05-01T22:03:08.461Z,1007.307
2023-05-01T22:23:07.633Z,1007.422
2023-05-01T22:43:07.336Z,1007.504
2023-05-01T23:03:08.690Z,1007.668
2023-05-01T23:23:07.422Z,1007.723
2023-05-01T23:43:07.341Z,1007.894
